Kenton, Michigan
Current Conditions -  °F | °C
As of 5:35 AM on Thursday 27 Nov 2014 (Local Time) from KLNL Reporting Station
Light Snow Light Snow  
Wind Chill: -3°   Ceiling: Unl
Heat Index:   Visibility: 5mi
Dew Point:   Wind: 7mph
Humidity: 85%   Direction: 350°N
Pressure: 30.25"   Gusts: NA
Location:  46.49°N, 88.89°W
Report Text: KLNL 271035Z AUTO 35006KT 5SM -SN SCT014 SCT020 M13/M15 A3025 RMK AO2 T11321153
Loading
Personal Weather Stations






























Interactive Weather Map New forecast layout! Learn more

10-Day Weather Forecast

Advertisements
Track Severe Weather on mobile